Time;durP1;ratioP1;P1;durP2;ratioP2;P2;SDS_P1;SDS_P2;PMS_P1;PMS_P2;Temp;Humidity;BMP_temperature;BMP_pressure;BME280_temperature;BME280_humidity;BME280_pressure;Samples;Min_cycle;Max_cycle;Signal;HPM_P1;HPM_P2
2024/01/22 00:01:51;;;;;;;6.90;3.80;;;;;;;-2.16;64.38;100624.14;109170;1256;72173;-26
2024/01/22 00:04:19;;;;;;;4.50;3.40;;;;;;;-2.31;64.60;100615.86;109144;1256;73323;-26
2024/01/22 00:06:46;;;;;;;4.40;2.80;;;;;;;-2.58;65.59;100616.61;109113;1256;71522;-26
2024/01/22 00:09:14;;;;;;;3.40;2.60;;;;;;;-2.66;65.70;100614.42;109123;1257;60081;-26
2024/01/22 00:11:41;;;;;;;4.80;2.90;;;;;;;-2.37;66.03;100618.59;109150;1256;58679;-26
2024/01/22 00:14:09;;;;;;;3.60;2.40;;;;;;;-1.65;64.01;100618.12;109135;1256;72867;-26
2024/01/22 00:16:40;;;;;;;4.70;3.10;;;;;;;-1.34;62.61;100619.79;109192;1256;74325;-27
2024/01/22 00:19:07;;;;;;;3.90;3.30;;;;;;;-1.39;62.61;100620.16;109094;1256;71449;-27
2024/01/22 00:21:39;;;;;;;4.00;3.10;;;;;;;-1.67;63.07;100627.33;109104;1256;58772;-26
2024/01/22 00:24:07;;;;;;;6.50;3.70;;;;;;;-1.89;63.40;100625.91;109045;1256;58788;-27
2024/01/22 00:26:34;;;;;;;5.90;3.50;;;;;;;-2.12;64.31;100623.27;109140;1256;73213;-26
2024/01/22 00:29:02;;;;;;;8.40;4.10;;;;;;;-2.07;64.34;100623.27;109043;1257;74401;-26
2024/01/22 00:31:29;;;;;;;5.70;3.00;;;;;;;-2.12;64.43;100623.44;109041;1257;71699;-27
2024/01/22 00:33:57;;;;;;;6.10;3.50;;;;;;;-2.31;65.00;100620.63;109016;1257;59004;-26
2024/01/22 00:36:25;;;;;;;5.40;3.70;;;;;;;-2.37;65.23;100622.85;109109;1257;58738;-27
2024/01/22 00:38:52;;;;;;;8.00;3.80;;;;;;;-2.51;65.50;100619.99;109043;1256;72745;-26
2024/01/22 00:41:20;;;;;;;6.40;3.70;;;;;;;-2.61;65.54;100617.81;109046;1257;74321;-26
2024/01/22 00:43:47;;;;;;;5.50;3.90;;;;;;;-2.32;65.48;100624.36;109082;1257;72644;-26
2024/01/22 00:46:15;;;;;;;5.50;3.70;;;;;;;-1.69;63.58;100629.71;109058;1257;59304;-26
2024/01/22 00:48:43;;;;;;;4.50;3.00;;;;;;;-1.40;62.44;100622.39;109067;1257;60007;-27
2024/01/22 00:51:11;;;;;;;5.60;3.60;;;;;;;-1.34;62.08;100622.85;109077;1260;73070;-26
2024/01/22 00:53:39;;;;;;;3.30;2.40;;;;;;;-1.58;62.53;100624.04;109121;1257;73233;-26
2024/01/22 00:56:06;;;;;;;3.80;2.30;;;;;;;-1.70;63.04;100615.23;109025;1257;72653;-26
2024/01/22 00:58:36;;;;;;;3.60;2.90;;;;;;;-1.83;63.37;100619.25;109096;1257;59264;-27
2024/01/22 01:01:05;;;;;;;5.10;3.80;;;;;;;-1.92;63.48;100622.69;109086;1257;58775;-26
2024/01/22 01:03:33;;;;;;;5.30;3.90;;;;;;;-2.04;64.12;100625.63;109078;1257;71088;-26
2024/01/22 01:06:00;;;;;;;7.10;3.70;;;;;;;-2.12;64.45;100624.30;109122;1257;74390;-26
2024/01/22 01:08:30;;;;;;;13.00;5.00;;;;;;;-2.24;64.51;100617.36;109187;1257;72619;-26
2024/01/22 01:10:57;;;;;;;5.90;3.40;;;;;;;-2.27;65.09;100617.89;109053;1259;60042;-26
2024/01/22 01:13:24;;;;;;;4.40;3.20;;;;;;;-2.39;65.33;100612.98;109135;1257;58792;-26
2024/01/22 01:15:52;;;;;;;4.00;2.70;;;;;;;-2.15;65.82;100617.16;109118;1256;73010;-26
2024/01/22 01:18:19;;;;;;;7.50;4.20;;;;;;;-1.39;63.93;100611.48;109094;1257;73323;-26
2024/01/22 01:20:47;;;;;;;4.10;2.70;;;;;;;-1.11;62.28;100618.24;109062;1260;71368;-26
2024/01/22 01:23:15;;;;;;;3.60;2.60;;;;;;;-1.15;62.28;100610.61;109102;1260;58882;-26
2024/01/22 01:25:43;;;;;;;4.00;3.10;;;;;;;-1.32;62.76;100613.98;109082;1256;60066;-27
2024/01/22 01:28:10;;;;;;;6.40;3.60;;;;;;;-1.44;62.81;100618.33;109098;1257;73022;-27
2024/01/22 01:30:38;;;;;;;8.40;3.80;;;;;;;-1.55;63.32;100620.78;109101;1257;74312;-27
2024/01/22 01:33:05;;;;;;;3.30;2.10;;;;;;;-1.71;63.93;100621.20;109072;1257;70521;-26
2024/01/22 01:35:33;;;;;;;5.60;4.40;;;;;;;-1.85;64.16;100625.89;109084;1259;58890;-26
2024/01/22 01:38:00;;;;;;;6.30;4.00;;;;;;;-1.95;64.40;100624.91;108988;1257;58950;-26
2024/01/22 01:40:28;;;;;;;3.90;2.90;;;;;;;-2.13;64.92;100625.66;109077;1257;73084;-26
2024/01/22 01:42:55;;;;;;;5.10;2.90;;;;;;;-2.17;64.96;100626.35;109091;1257;74381;-26
2024/01/22 01:45:23;;;;;;;5.10;2.90;;;;;;;-2.27;65.63;100620.62;109052;1257;73120;-26
2024/01/22 01:47:50;;;;;;;8.00;2.70;;;;;;;-1.93;65.68;100619.11;109078;1257;58883;-26
2024/01/22 01:50:18;;;;;;;6.00;3.20;;;;;;;-1.24;63.68;100617.48;109096;1257;60030;-26
2024/01/22 01:52:45;;;;;;;5.30;3.30;;;;;;;-0.90;62.53;100622.17;109059;1257;73879;-27
2024/01/22 01:55:13;;;;;;;5.60;3.50;;;;;;;-0.99;62.02;100611.52;109082;1257;74366;-27
2024/01/22 01:57:40;;;;;;;6.80;3.80;;;;;;;-1.26;62.54;100605.42;108986;1257;72687;-27
2024/01/22 02:00:14;;;;;;;4.60;2.90;;;;;;;-1.50;63.24;100598.59;109039;1257;58818;-26
2024/01/22 02:02:42;;;;;;;7.40;4.00;;;;;;;-1.66;63.54;100590.86;108996;1257;58771;-26
2024/01/22 02:05:09;;;;;;;3.80;3.20;;;;;;;-1.82;63.91;100593.01;109085;1257;71675;-26
2024/01/22 02:07:37;;;;;;;6.00;3.60;;;;;;;-1.97;64.33;100592.24;109107;1257;74348;-27
2024/01/22 02:10:05;;;;;;;7.10;3.70;;;;;;;-2.00;64.77;100590.04;109085;1257;70777;-27
2024/01/22 02:12:32;;;;;;;6.10;3.70;;;;;;;-2.16;65.15;100590.61;109035;1260;60070;-26
2024/01/22 02:14:59;;;;;;;5.20;3.40;;;;;;;-2.22;65.44;100583.17;109128;1257;58859;-26
2024/01/22 02:17:27;;;;;;;6.60;3.70;;;;;;;-2.30;65.84;100577.23;108990;1257;72424;-26
2024/01/22 02:19:54;;;;;;;4.70;3.60;;;;;;;-2.39;65.85;100572.16;109076;1257;74315;-27
2024/01/22 02:22:22;;;;;;;6.60;3.30;;;;;;;-1.95;66.09;100563.27;109112;1257;72684;-27
2024/01/22 02:24:49;;;;;;;3.20;2.90;;;;;;;-1.22;63.53;100555.27;108994;1259;58869;-26
2024/01/22 02:27:17;;;;;;;5.10;3.50;;;;;;;-1.04;62.31;100553.77;109034;1259;60098;-26
2024/01/22 02:29:45;;;;;;;4.40;3.20;;;;;;;-1.18;62.33;100548.43;108991;1258;72829;-26
2024/01/22 02:32:13;;;;;;;7.80;3.60;;;;;;;-1.39;62.71;100541.11;109069;1258;74330;-26
2024/01/22 02:34:40;;;;;;;6.00;3.50;;;;;;;-1.52;62.71;100543.42;108977;1259;72691;-27
2024/01/22 02:37:08;;;;;;;5.30;3.60;;;;;;;-1.70;63.65;100539.13;109058;1259;59346;-27
2024/01/22 02:39:36;;;;;;;6.80;3.30;;;;;;;-1.89;63.76;100541.30;109107;1258;58783;-26
2024/01/22 02:42:03;;;;;;;5.80;3.60;;;;;;;-2.03;64.15;100542.39;109072;1260;73838;-26
2024/01/22 02:44:34;;;;;;;3.80;2.60;;;;;;;-2.12;64.52;100557.92;109081;1259;73241;-26
2024/01/22 02:47:03;;;;;;;6.20;4.20;;;;;;;-2.17;64.90;100558.80;108990;1258;72650;-27
2024/01/22 02:49:30;;;;;;;4.30;3.20;;;;;;;-2.26;64.94;100570.59;108999;1259;60033;-27
2024/01/22 02:51:58;;;;;;;7.10;3.90;;;;;;;-2.28;65.10;100574.69;109082;1259;60023;-26
2024/01/22 02:54:27;;;;;;;4.10;3.20;;;;;;;-2.33;65.23;100576.58;108957;1258;73933;-26
2024/01/22 02:56:55;;;;;;;5.90;4.30;;;;;;;-2.44;65.78;100568.61;108994;1258;74339;-26
2024/01/22 02:59:22;;;;;;;3.60;2.50;;;;;;;-2.20;66.01;100564.77;108945;1259;71382;-27
2024/01/22 03:01:50;;;;;;;6.70;3.70;;;;;;;-1.46;63.98;100568.42;109062;1259;59297;-27
2024/01/22 03:04:18;;;;;;;4.50;2.70;;;;;;;-1.19;62.66;100569.91;109023;1258;60228;-26
2024/01/22 03:06:46;;;;;;;7.60;4.20;;;;;;;-1.22;62.54;100571.81;109069;1260;73708;-26
2024/01/22 03:09:15;;;;;;;5.40;3.70;;;;;;;-1.34;62.80;100570.39;108947;1259;73104;-26
2024/01/22 03:11:42;;;;;;;8.90;4.40;;;;;;;-1.57;63.32;100561.69;109021;1258;71406;-26
2024/01/22 03:14:10;;;;;;;5.50;3.40;;;;;;;-1.79;63.87;100557.23;108969;1259;59248;-27
2024/01/22 03:16:38;;;;;;;6.80;3.60;;;;;;;-1.96;64.24;100547.46;109111;1258;58675;-26
2024/01/22 03:19:05;;;;;;;5.40;3.20;;;;;;;-2.13;65.10;100542.28;108987;1259;73840;-26
2024/01/22 03:21:33;;;;;;;7.90;3.90;;;;;;;-2.19;65.31;100536.16;109081;1258;74532;-26
2024/01/22 03:24:01;;;;;;;4.00;3.20;;;;;;;-2.30;65.59;100541.16;108949;1258;72672;-26
2024/01/22 03:26:28;;;;;;;6.00;4.40;;;;;;;-2.35;65.81;100547.66;109042;1259;60154;-27
2024/01/22 03:28:56;;;;;;;3.40;2.70;;;;;;;-2.35;65.93;100549.19;109035;1259;58885;-27
2024/01/22 03:31:24;;;;;;;5.00;3.50;;;;;;;-2.49;66.36;100545.48;109019;1259;73879;-26
2024/01/22 03:33:52;;;;;;;7.10;4.00;;;;;;;-1.89;65.62;100545.88;108944;1259;73188;-26
2024/01/22 03:36:20;;;;;;;8.90;4.50;;;;;;;-1.13;63.72;100543.45;108943;1259;72660;-27
2024/01/22 03:38:49;;;;;;;6.40;4.40;;;;;;;-0.96;62.39;100543.11;108967;1258;58927;-27
2024/01/22 03:41:16;;;;;;;4.10;2.90;;;;;;;-1.20;62.94;100540.77;108975;1260;59878;-27
2024/01/22 03:43:44;;;;;;;5.30;3.20;;;;;;;-1.34;63.19;100540.04;109009;1258;72596;-27
2024/01/22 03:46:12;;;;;;;4.90;3.90;;;;;;;-1.49;63.37;100536.24;109034;1259;74312;-26
2024/01/22 03:48:40;;;;;;;4.70;3.40;;;;;;;-1.66;64.04;100533.13;108977;1259;72649;-26
2024/01/22 03:51:08;;;;;;;6.30;4.80;;;;;;;-1.84;64.64;100524.40;109006;1259;59411;-26
2024/01/22 03:53:36;;;;;;;8.40;5.90;;;;;;;-2.07;65.21;100519.96;109015;1259;60072;-27
2024/01/22 03:56:05;;;;;;;5.10;4.10;;;;;;;-2.16;65.47;100519.33;109016;1259;73825;-27
2024/01/22 03:58:33;;;;;;;5.20;3.30;;;;;;;-2.26;65.98;100505.77;108935;1259;74338;-26
2024/01/22 04:01:01;;;;;;;6.90;3.00;;;;;;;-2.29;66.35;100503.23;109009;1259;72705;-26
2024/01/22 04:03:30;;;;;;;5.90;4.10;;;;;;;-1.64;65.45;100496.85;108988;1259;59301;-26
2024/01/22 04:05:58;;;;;;;7.10;4.40;;;;;;;-1.27;63.68;100492.95;108999;1259;58988;-26
2024/01/22 04:08:26;;;;;;;4.70;3.40;;;;;;;-1.15;63.00;100498.79;109022;1259;73832;-27
2024/01/22 04:10:54;;;;;;;5.50;3.80;;;;;;;-1.20;62.72;100512.14;108972;1259;73031;-27
2024/01/22 04:13:21;;;;;;;9.00;4.10;;;;;;;-1.33;63.33;100516.36;108977;1259;72672;-27
2024/01/22 04:16:01;;;;;;;6.40;3.70;;;;;;;-1.61;63.88;100522.02;109011;1259;59251;-26
2024/01/22 04:18:28;;;;;;;6.50;4.50;;;;;;;-1.96;64.83;100523.64;108957;1259;60053;-26
2024/01/22 04:20:56;;;;;;;5.90;3.80;;;;;;;-2.14;65.46;100527.81;108955;1258;73833;-27
2024/01/22 04:23:24;;;;;;;7.70;5.40;;;;;;;-2.30;66.43;100537.26;109009;1258;73557;-26
2024/01/22 04:25:51;;;;;;;8.60;4.10;;;;;;;-2.28;66.18;100542.70;108961;1259;72727;-26
2024/01/22 04:28:20;;;;;;;5.70;4.20;;;;;;;-2.32;66.43;100527.39;108978;1259;60199;-26
2024/01/22 04:30:51;;;;;;;6.30;4.80;;;;;;;-2.34;66.91;100507.16;108913;1259;58890;-26
2024/01/22 04:33:21;;;;;;;10.80;6.80;;;;;;;-1.80;65.72;100492.36;109016;1259;73923;-26
2024/01/22 04:35:52;;;;;;;6.70;4.60;;;;;;;-1.51;64.14;100493.67;108811;1259;73378;-26
2024/01/22 04:38:22;;;;;;;9.60;5.90;;;;;;;-1.57;64.21;100492.89;108931;1259;71454;-26
2024/01/22 04:40:52;;;;;;;9.50;6.70;;;;;;;-1.84;64.13;100487.11;108940;1259;58831;-27
2024/01/22 04:43:22;;;;;;;5.90;3.70;;;;;;;-2.16;65.50;100478.14;108930;1259;60012;-26
2024/01/22 04:45:52;;;;;;;5.60;3.80;;;;;;;-2.13;65.80;100475.91;108925;1259;72592;-27
2024/01/22 04:48:22;;;;;;;6.30;4.10;;;;;;;-2.30;66.09;100483.16;108930;1259;74387;-26
2024/01/22 04:50:53;;;;;;;5.60;4.20;;;;;;;-2.35;66.46;100502.92;108910;1259;72596;-26
2024/01/22 04:53:23;;;;;;;4.50;3.30;;;;;;;-2.53;66.84;100507.92;108893;1260;58887;-26
2024/01/22 04:55:53;;;;;;;7.10;4.50;;;;;;;-2.36;66.93;100498.33;108963;1259;60176;-26
2024/01/22 04:58:22;;;;;;;8.70;5.40;;;;;;;-1.80;65.26;100488.97;108958;1259;73785;-26
2024/01/22 05:00:53;;;;;;;6.00;4.80;;;;;;;-1.62;63.87;100486.29;108944;1259;73347;-26
2024/01/22 05:03:23;;;;;;;5.90;3.80;;;;;;;-1.83;64.15;100482.87;108923;1259;72643;-26
2024/01/22 05:05:53;;;;;;;6.70;4.00;;;;;;;-1.99;64.24;100486.37;108920;1259;58786;-27
2024/01/22 05:08:24;;;;;;;7.10;4.20;;;;;;;-2.21;64.74;100491.45;108879;1259;60024;-26
2024/01/22 05:10:54;;;;;;;6.50;3.40;;;;;;;-2.44;65.47;100496.50;108957;1259;73837;-27
2024/01/22 05:13:24;;;;;;;6.90;4.40;;;;;;;-2.57;65.56;100491.44;108877;1259;72606;-26
2024/01/22 05:15:54;;;;;;;7.50;4.70;;;;;;;-2.73;66.02;100496.61;108837;1259;74074;-26
2024/01/22 05:18:24;;;;;;;10.60;6.70;;;;;;;-2.94;66.78;100492.95;108954;1259;61229;-26
2024/01/22 05:20:54;;;;;;;4.90;3.40;;;;;;;-3.12;67.56;100481.94;108852;1259;60050;-26
2024/01/22 05:23:23;;;;;;;4.70;4.20;;;;;;;-2.61;66.90;100481.09;108945;1259;73869;-27
2024/01/22 05:25:54;;;;;;;5.20;3.80;;;;;;;-2.22;65.18;100476.98;108984;1259;74323;-26
2024/01/22 05:36:15;;;;;;;9.20;5.50;;;;;;;-2.77;66.29;100486.59;102588;1290;615204;-28
2024/01/22 05:38:43;;;;;;;6.00;4.60;;;;;;;-2.99;66.61;100476.80;105045;1264;61071;-28
2024/01/22 05:41:10;;;;;;;6.60;3.80;;;;;;;-3.18;66.86;100472.10;105195;1269;61091;-27
2024/01/22 05:43:37;;;;;;;8.20;4.90;;;;;;;-3.32;67.46;100470.42;105149;1264;72200;-27
2024/01/22 05:46:04;;;;;;;7.70;3.60;;;;;;;-3.27;67.57;100471.77;105166;1264;74275;-27
2024/01/22 05:48:33;;;;;;;8.20;4.50;;;;;;;-2.59;66.25;100475.81;104956;1264;255710;-28
2024/01/22 05:51:01;;;;;;;3.60;2.90;;;;;;;-2.41;65.46;100473.86;104933;1262;61016;-27
2024/01/22 05:53:28;;;;;;;5.80;3.50;;;;;;;-2.49;65.04;100474.40;104995;1266;61175;-28
2024/01/22 05:55:55;;;;;;;6.90;4.20;;;;;;;-2.69;65.49;100475.34;105237;1266;72145;-27
2024/01/22 05:58:22;;;;;;;8.20;5.40;;;;;;;-2.87;65.98;100486.96;105203;1264;74679;-27
2024/01/22 06:00:49;;;;;;;7.90;4.70;;;;;;;-3.14;66.61;100479.73;105230;1263;72624;-28
2024/01/22 06:03:16;;;;;;;7.30;3.60;;;;;;;-3.32;67.22;100472.29;105151;1262;61140;-27
2024/01/22 06:05:43;;;;;;;7.50;4.50;;;;;;;-3.44;67.79;100476.89;105206;1266;61153;-27
2024/01/22 06:08:11;;;;;;;6.90;4.60;;;;;;;-3.39;68.13;100476.21;105200;1263;73074;-27
2024/01/22 06:10:38;;;;;;;3.30;2.90;;;;;;;-2.69;66.38;100484.20;105193;1264;74399;-27
2024/01/22 06:13:04;;;;;;;7.50;4.80;;;;;;;-2.44;65.29;100486.46;105195;1264;72449;-27
2024/01/22 06:15:31;;;;;;;9.00;5.70;;;;;;;-2.58;64.86;100484.48;105096;1262;61071;-27
2024/01/22 06:17:58;;;;;;;9.30;4.30;;;;;;;-2.82;65.81;100485.08;105150;1266;61058;-27
2024/01/22 06:20:25;;;;;;;8.00;4.10;;;;;;;-3.01;65.75;100493.63;105229;1264;72873;-27
2024/01/22 06:22:52;;;;;;;8.10;4.40;;;;;;;-3.18;66.43;100497.07;105268;1264;74932;-27
2024/01/22 06:25:19;;;;;;;6.80;3.90;;;;;;;-3.24;66.85;100495.20;105196;1262;72509;-27
2024/01/22 06:27:46;;;;;;;8.80;5.40;;;;;;;-3.35;66.96;100494.38;105172;1263;61161;-28
2024/01/22 06:30:15;;;;;;;5.20;3.30;;;;;;;-3.36;67.58;100487.91;105150;1269;61167;-27
2024/01/22 06:32:42;;;;;;;10.40;6.10;;;;;;;-2.78;65.99;100496.98;105154;1264;73013;-27
2024/01/22 06:35:09;;;;;;;8.50;4.90;;;;;;;-2.64;65.41;100490.80;105151;1263;74197;-27
2024/01/22 06:37:36;;;;;;;5.70;4.50;;;;;;;-2.73;65.27;100481.48;105207;1263;73201;-27
2024/01/22 06:40:04;;;;;;;6.50;3.70;;;;;;;-2.85;65.63;100474.55;105221;1263;61023;-27
2024/01/22 06:42:31;;;;;;;8.60;5.40;;;;;;;-2.96;65.85;100466.10;104929;1266;61173;-27
2024/01/22 06:45:07;;;;;;;8.00;4.10;;;;;;;-3.00;65.84;100463.05;105144;1263;73161;-27
2024/01/22 06:47:34;;;;;;;9.20;5.80;;;;;;;-3.12;66.42;100459.34;104890;1263;74301;-27
2024/01/22 06:50:03;;;;;;;10.70;5.80;;;;;;;-3.30;66.95;100456.84;105199;1264;72497;-27
2024/01/22 06:52:30;;;;;;;9.10;6.60;;;;;;;-3.42;67.53;100449.38;105080;1264;61089;-27
2024/01/22 06:54:57;;;;;;;7.70;5.00;;;;;;;-3.11;67.27;100456.10;104817;1264;61066;-28
2024/01/22 06:57:23;;;;;;;8.20;6.00;;;;;;;-2.69;65.91;100446.45;105035;1264;72998;-27
2024/01/22 06:59:52;;;;;;;10.50;4.10;;;;;;;-2.64;65.86;100432.14;104795;1264;74386;-27
2024/01/22 07:02:26;;;;;;;7.90;5.40;;;;;;;-2.72;65.44;100440.34;105215;1269;72283;-27
2024/01/22 07:04:55;;;;;;;10.00;6.20;;;;;;;-2.86;65.63;100452.30;105110;1263;61134;-27
2024/01/22 07:07:22;;;;;;;8.00;5.10;;;;;;;-3.05;66.46;100450.64;104809;1264;61186;-28
2024/01/22 07:09:49;;;;;;;8.60;5.30;;;;;;;-3.05;66.56;100449.11;105107;1263;72909;-27
2024/01/22 07:12:17;;;;;;;7.30;5.00;;;;;;;-3.01;66.83;100452.00;105200;1264;74750;-27
2024/01/22 07:14:44;;;;;;;15.40;6.70;;;;;;;-3.03;66.84;100438.07;104999;1263;72588;-27
2024/01/22 07:17:15;;;;;;;9.00;4.80;;;;;;;-2.94;66.86;100450.78;104867;1264;61116;-27
2024/01/22 07:19:42;;;;;;;7.90;5.70;;;;;;;-2.81;66.63;100452.61;104778;1264;61160;-27
2024/01/22 07:22:10;;;;;;;8.90;5.20;;;;;;;-2.70;66.16;100454.80;105063;1263;72982;-27
2024/01/22 07:24:37;;;;;;;7.60;4.90;;;;;;;-2.70;66.06;100452.73;105125;1260;74424;-27
2024/01/22 07:27:04;;;;;;;8.00;4.80;;;;;;;-2.66;65.89;100455.45;105265;1260;72515;-27
2024/01/22 07:29:31;;;;;;;11.30;5.90;;;;;;;-2.52;65.99;100445.85;105171;1260;61029;-27
2024/01/22 07:31:58;;;;;;;11.00;6.80;;;;;;;-2.55;65.91;100437.70;105169;1260;61147;-27
2024/01/22 07:34:25;;;;;;;7.00;4.90;;;;;;;-2.54;65.71;100430.55;105282;1260;72987;-28
2024/01/22 07:36:53;;;;;;;9.60;6.00;;;;;;;-2.46;66.03;100424.90;105262;1261;74517;-27
2024/01/22 07:39:20;;;;;;;13.30;7.30;;;;;;;-2.46;66.01;100418.78;105088;1260;72698;-27
2024/01/22 07:41:46;;;;;;;11.20;5.80;;;;;;;-2.33;65.48;100415.64;105112;1260;61128;-27
2024/01/22 07:44:14;;;;;;;7.90;5.80;;;;;;;-2.31;65.53;100405.94;105178;1266;61154;-27
2024/01/22 07:46:41;;;;;;;7.00;4.50;;;;;;;-2.39;65.72;100411.59;105322;1260;73188;-28
2024/01/22 07:49:07;;;;;;;9.50;6.10;;;;;;;-2.39;65.69;100408.70;105268;1261;74350;-28
2024/01/22 07:51:35;;;;;;;13.20;9.40;;;;;;;-2.48;66.15;100410.29;105277;1261;71431;-28
2024/01/22 07:54:02;;;;;;;11.80;6.60;;;;;;;-2.52;66.21;100400.45;105288;1260;61122;-28
2024/01/22 07:56:29;;;;;;;8.20;4.90;;;;;;;-2.35;66.28;100414.80;105257;1267;61162;-28
2024/01/22 07:58:56;;;;;;;8.20;6.00;;;;;;;-1.65;64.57;100403.35;105253;1266;73032;-28
2024/01/22 08:01:23;;;;;;;7.40;5.40;;;;;;;-1.19;62.71;100404.07;105207;1261;74251;-28
2024/01/22 08:03:50;;;;;;;11.30;6.50;;;;;;;-1.19;62.34;100402.03;105656;1257;72633;-28
2024/01/22 08:06:16;;;;;;;15.40;7.70;;;;;;;-1.23;61.92;100396.96;105599;1258;61123;-28
2024/01/22 08:08:44;;;;;;;10.50;7.10;;;;;;;-1.34;62.35;100412.77;105570;1258;61185;-28
2024/01/22 08:11:12;;;;;;;15.30;7.90;;;;;;;-1.47;63.11;100416.98;105651;1257;73086;-28
2024/01/22 08:13:40;;;;;;;4.90;4.20;;;;;;;-1.38;62.82;100415.88;105323;1258;74333;-28
2024/01/22 08:16:07;;;;;;;13.30;8.50;;;;;;;-1.31;63.03;100406.77;105617;1257;72526;-28
2024/01/22 08:18:34;;;;;;;11.60;8.00;;;;;;;-1.40;63.07;100390.16;105638;1257;61055;-28
2024/01/22 08:21:03;;;;;;;8.70;6.40;;;;;;;-1.32;63.21;100385.48;105680;1262;61159;-28
2024/01/22 08:23:30;;;;;;;12.30;8.80;;;;;;;-1.44;63.18;100383.05;105565;1257;73394;-28
2024/01/22 08:25:57;;;;;;;11.10;6.70;;;;;;;-1.63;63.71;100384.77;105580;1257;75703;-28
2024/01/22 08:28:24;;;;;;;13.40;6.20;;;;;;;-1.55;63.89;100389.98;105685;1258;71545;-28
2024/01/22 08:30:51;;;;;;;9.50;6.00;;;;;;;-1.43;64.03;100390.53;105613;1257;61003;-28
2024/01/22 08:33:18;;;;;;;13.30;7.60;;;;;;;-1.44;63.16;100383.06;105618;1261;61061;-28
2024/01/22 08:35:45;;;;;;;10.00;7.10;;;;;;;-1.69;63.82;100371.89;105347;1257;72594;-28
2024/01/22 08:38:13;;;;;;;11.80;7.50;;;;;;;-1.74;64.48;100368.03;105361;1257;74589;-28
2024/01/22 08:40:44;;;;;;;15.70;7.20;;;;;;;-1.67;64.28;100362.00;105483;1258;73181;-27
2024/01/22 08:43:11;;;;;;;16.40;9.60;;;;;;;-1.83;64.25;100352.77;105673;1262;61160;-27
2024/01/22 08:45:38;;;;;;;11.00;7.10;;;;;;;-1.88;64.66;100355.90;105595;1260;61099;-26
2024/01/22 08:48:06;;;;;;;14.80;8.50;;;;;;;-1.79;64.59;100349.00;105551;1257;72236;-27
2024/01/22 08:50:34;;;;;;;14.50;8.90;;;;;;;-1.94;64.60;100341.48;105532;1257;75845;-26
2024/01/22 08:53:01;;;;;;;17.20;9.10;;;;;;;-1.79;64.79;100340.15;105389;1257;72514;-27
2024/01/22 08:55:28;;;;;;;11.20;7.10;;;;;;;-1.77;64.95;100337.73;105231;1257;61081;-27
2024/01/22 08:57:55;;;;;;;15.30;9.60;;;;;;;-1.86;64.84;100343.11;105168;1263;61241;-27
2024/01/22 09:00:24;;;;;;;11.30;8.20;;;;;;;-1.57;63.88;100332.92;105264;1257;72817;-27
2024/01/22 09:02:51;;;;;;;14.00;10.20;;;;;;;-1.27;62.87;100334.65;105365;1258;73282;-27
2024/01/22 09:08:49;;;;;;;11.20;7.60;;;;;;;-1.18;62.23;100337.95;105607;1257;61144;-27
2024/01/22 09:11:17;;;;;;;10.60;6.30;;;;;;;-1.55;62.88;100338.70;105676;1261;61064;-27
2024/01/22 09:13:44;;;;;;;15.60;8.20;;;;;;;-1.66;63.44;100330.82;105610;1257;73366;-27
2024/01/22 09:16:14;;;;;;;12.10;6.20;;;;;;;-1.68;63.96;100333.56;105618;1258;74344;-27
2024/01/22 09:18:44;;;;;;;11.20;7.10;;;;;;;-1.66;63.87;100327.58;105575;1263;73320;-27
2024/01/22 09:21:13;;;;;;;8.80;5.50;;;;;;;-1.49;63.72;100328.09;105314;1257;61141;-27
2024/01/22 09:23:40;;;;;;;12.60;7.60;;;;;;;-1.44;63.25;100324.11;105469;1258;61142;-27
2024/01/22 09:26:07;;;;;;;10.20;7.20;;;;;;;-1.41;63.90;100315.73;105440;1258;73138;-26
2024/01/22 09:28:34;;;;;;;9.20;6.60;;;;;;;-1.19;63.02;100303.54;105369;1258;74024;-26
2024/01/22 09:31:02;;;;;;;7.90;5.20;;;;;;;-1.19;62.85;100303.70;105523;1263;72431;-27
2024/01/22 09:33:29;;;;;;;13.10;8.70;;;;;;;-1.15;63.05;100302.79;105488;1257;60984;-27
2024/01/22 09:35:56;;;;;;;8.20;5.60;;;;;;;-1.14;62.86;100301.42;105207;1258;61188;-26
2024/01/22 09:38:23;;;;;;;8.70;5.90;;;;;;;-0.91;62.52;100296.17;105607;1258;72866;-26
2024/01/22 09:40:51;;;;;;;10.80;7.10;;;;;;;-0.58;61.48;100294.84;105643;1258;74782;-26
2024/01/22 09:43:19;;;;;;;9.00;6.10;;;;;;;-0.54;61.13;100291.88;105555;1259;71719;-27
2024/01/22 09:45:47;;;;;;;14.50;9.90;;;;;;;-0.48;60.80;100296.21;105616;1258;61068;-27
2024/01/22 09:48:14;;;;;;;11.60;8.10;;;;;;;-0.92;61.26;100292.25;105652;1257;61030;-27
2024/01/22 09:50:42;;;;;;;13.00;8.50;;;;;;;-1.02;62.09;100297.00;105530;1258;73652;-27
2024/01/22 09:53:10;;;;;;;11.70;7.90;;;;;;;-1.10;62.44;100289.11;105551;1258;74646;-27
2024/01/22 09:55:38;;;;;;;13.40;7.60;;;;;;;-0.98;62.44;100292.52;105417;1258;72275;-27
2024/01/22 09:58:07;;;;;;;11.90;6.60;;;;;;;-0.79;61.92;100288.49;105472;1257;61181;-27
2024/01/22 10:00:39;;;;;;;7.50;5.00;;;;;;;-0.69;61.95;100287.67;105428;1263;61112;-27
2024/01/22 10:03:06;;;;;;;10.60;6.70;;;;;;;-0.62;61.31;100276.99;105343;1264;72880;-27
2024/01/22 10:05:34;;;;;;;13.90;8.80;;;;;;;-0.61;61.29;100275.42;105580;1257;73854;-27
2024/01/22 10:08:01;;;;;;;10.00;6.80;;;;;;;-0.75;61.86;100277.17;105436;1257;72360;-27
2024/01/22 10:10:28;;;;;;;10.80;7.50;;;;;;;-0.47;61.51;100283.06;105413;1261;61073;-27
2024/01/22 10:13:07;;;;;;;10.20;5.40;;;;;;;-0.55;61.01;100277.05;105498;1259;61064;-27
2024/01/22 10:15:34;;;;;;;10.60;6.50;;;;;;;-0.51;61.19;100273.74;105526;1258;72965;-27
2024/01/22 10:18:15;;;;;;;7.20;5.40;;;;;;;-0.55;61.29;100270.57;105329;1263;75561;-27
2024/01/22 10:20:44;;;;;;;9.50;5.30;;;;;;;-0.65;61.46;100271.73;105395;1256;73698;-26
2024/01/22 10:23:12;;;;;;;6.90;5.70;;;;;;;-0.50;61.27;100264.85;105281;1257;61070;-27
2024/01/22 10:25:39;;;;;;;5.90;4.40;;;;;;;-0.23;60.45;100267.48;105494;1258;61068;-27
2024/01/22 10:28:11;;;;;;;8.70;6.50;;;;;;;0.17;60.04;100266.41;105571;1262;73906;-27
2024/01/22 10:30:39;;;;;;;12.20;9.20;;;;;;;0.18;59.58;100263.66;105605;1257;73395;-27
2024/01/22 10:33:10;;;;;;;11.50;6.90;;;;;;;-0.20;59.79;100261.45;105323;1258;71416;-27
2024/01/22 10:35:38;;;;;;;11.10;8.00;;;;;;;-0.14;60.12;100263.05;105557;1259;61172;-27
2024/01/22 10:38:12;;;;;;;7.20;5.50;;;;;;;-0.14;60.14;100263.73;105829;1256;61132;-27
2024/01/22 10:40:40;;;;;;;14.40;8.90;;;;;;;-0.17;60.22;100255.77;105836;1254;72836;-27
2024/01/22 10:43:28;;;;;;;8.40;6.30;;;;;;;-0.40;60.31;100254.79;105608;1254;73381;-26
2024/01/22 10:45:57;;;;;;;7.30;5.40;;;;;;;-0.30;60.46;100248.64;105487;1260;74014;-27
2024/01/22 10:48:30;;;;;;;13.00;6.80;;;;;;;-0.35;60.79;100250.96;105674;1257;61170;-26
2024/01/22 10:51:10;;;;;;;11.80;7.20;;;;;;;-0.09;60.09;100235.13;105534;1257;61580;-27
2024/01/22 10:53:38;;;;;;;9.80;7.60;;;;;;;-0.03;59.70;100232.64;105891;1257;73026;-27
2024/01/22 10:56:18;;;;;;;14.10;9.80;;;;;;;0.28;59.15;100229.48;105854;1254;75773;-27
2024/01/22 10:58:46;;;;;;;6.00;4.80;;;;;;;0.34;58.81;100234.15;105522;1262;74063;-26
2024/01/22 11:02:22;;;;;;;12.40;7.20;;;;;;;0.36;58.78;100225.55;102717;1293;600499;-27
2024/01/22 11:04:52;;;;;;;8.50;5.10;;;;;;;0.26;58.30;100222.36;104852;1272;61221;-28
2024/01/22 11:07:27;;;;;;;11.20;7.40;;;;;;;0.22;58.80;100220.71;104798;1268;61517;-28
2024/01/22 11:09:55;;;;;;;11.20;8.40;;;;;;;-0.02;58.99;100215.20;104853;1265;70894;-28
2024/01/22 11:12:26;;;;;;;10.70;6.80;;;;;;;-0.12;59.34;100219.81;105286;1264;74636;-28
2024/01/22 11:14:53;;;;;;;14.20;8.90;;;;;;;-0.02;59.00;100209.22;105088;1260;201178;-28
2024/01/22 11:17:21;;;;;;;7.90;5.70;;;;;;;-0.12;59.19;100205.15;105604;1262;61170;-28
2024/01/22 11:19:50;;;;;;;5.30;4.30;;;;;;;0.19;59.15;100204.73;105722;1257;61505;-28
2024/01/22 11:22:22;;;;;;;9.40;6.50;;;;;;;0.32;58.74;100204.96;105593;1257;75041;-28
2024/01/22 11:25:01;;;;;;;14.20;9.30;;;;;;;0.54;58.33;100181.61;105473;1257;74336;-28
2024/01/22 11:27:39;;;;;;;10.10;6.90;;;;;;;0.29;58.35;100165.92;105576;1260;75001;-28
2024/01/22 11:30:20;;;;;;;9.00;5.50;;;;;;;0.25;58.15;100159.52;105350;1259;61352;-28
2024/01/22 11:32:48;;;;;;;12.40;9.10;;;;;;;0.27;58.78;100157.08;105481;1257;61000;-27